Terminal Aerodrome Forecast
Issued by NWS Huntsville, AL

Home | Current Version | Previous Version | Text Only | Print | Product List | Glossary On
Versions: 1 2 3 4 5 6 7 8 9 10 11 12 13 14 15 16 17 18 19 20 21 22 23 24 25 26 27 28 29 30 31 32
000
FTUS44 KHUN 240520
TAFMSL
TAF
KMSL 240520Z 2406/2506 14008KT P6SM SCT250
     FM241500 15010G20KT P6SM SCT030
     FM242000 15015G25KT P6SM BKN050
     FM250000 16010G20KT P6SM VCSH BKN040=

USA.gov is the U.S. government's official web portal to all federal, state and local government web resources and services.